logo
Search for airport 
image banner adimage banner adimage banner ad
image banner ad

SMDK - Donderskamp

Located in , Suriname

ICAO - , IATA -

Data provided by Airmate  

General information

Coordinates: N5°21'2" W56°21'43"
Elevation is 33 feet MSL.
 
View others Airports in Nickerie

Operational data

Special qualification required
Current time UTC:
Current local time:
Weather at : - ( 0 km )
METAR: SBOI 170608Z AUTO 04009KT 5000 // SCT006/// BKN030/// OVC037/// 25/25 Q1010
View NOTAMs / SUP AIP / TFR affecting this airport [VIEW]
Communications frequencies: [VIEW]

Runways:

RWY identifierQFULength (ft)Width (ft)SurfaceLDA (ft)
0900UNK
2700UNK

Airport contact information

Address: Suriname

Satellite view of SMDK